createdAt,value
2022-12-06T00:00:03.906Z,2.19
2022-12-06T00:01:03.902Z,2.19
2022-12-06T00:02:03.923Z,2.19
2022-12-06T00:03:03.857Z,2.19
2022-12-06T00:04:03.770Z,2.19
2022-12-06T00:05:03.658Z,2.12
2022-12-06T00:06:03.591Z,2.12
2022-12-06T00:07:03.518Z,2.19
2022-12-06T00:08:04.456Z,2.12
2022-12-06T00:09:04.210Z,2.19
2022-12-06T00:10:04.293Z,2.12
2022-12-06T00:11:04.238Z,2.12
2022-12-06T00:12:04.220Z,2.12
2022-12-06T00:13:04.229Z,2.12
2022-12-06T00:14:04.234Z,2.12
2022-12-06T00:15:04.316Z,2.12
2022-12-06T00:16:04.228Z,2.12
2022-12-06T00:17:04.147Z,2.12
2022-12-06T00:18:04.062Z,2.12
2022-12-06T00:19:03.988Z,2.12
2022-12-06T00:20:03.978Z,2.12
2022-12-06T00:21:03.904Z,2.12
2022-12-06T00:22:03.835Z,2.12
2022-12-06T00:23:03.662Z,2.12
2022-12-06T00:24:03.741Z,2.12
2022-12-06T00:25:03.672Z,2.12
2022-12-06T00:26:03.583Z,2.12
2022-12-06T00:27:03.506Z,2.19
2022-12-06T00:28:03.498Z,2.19
2022-12-06T00:29:03.498Z,2.19
2022-12-06T00:30:04.464Z,2.19
2022-12-06T00:31:04.314Z,2.12
2022-12-06T00:32:04.514Z,2.12
2022-12-06T00:33:04.381Z,2.19
2022-12-06T00:34:04.305Z,2.19
2022-12-06T00:35:04.300Z,2.19
2022-12-06T00:36:04.320Z,2.12
2022-12-06T00:37:04.146Z,2.12
2022-12-06T00:38:04.054Z,2.12
2022-12-06T00:39:04.059Z,2.12
2022-12-06T00:40:03.907Z,2.19
2022-12-06T00:41:03.912Z,2.19
2022-12-06T00:42:03.903Z,2.19
2022-12-06T00:43:03.833Z,2.19
2022-12-06T00:44:03.736Z,2.19
2022-12-06T00:45:03.822Z,2.19
2022-12-06T00:46:03.895Z,2.19
2022-12-06T00:47:03.827Z,2.19
2022-12-06T00:48:03.738Z,2.19
2022-12-06T00:49:03.742Z,2.19
2022-12-06T00:50:03.744Z,2.19
2022-12-06T00:51:03.662Z,2.19
2022-12-06T00:52:03.740Z,2.19
2022-12-06T00:53:03.739Z,2.19
2022-12-06T00:54:03.672Z,2.19
2022-12-06T00:55:03.585Z,2.19
2022-12-06T00:56:03.501Z,2.19
2022-12-06T00:57:03.508Z,2.19
2022-12-06T00:58:03.418Z,2.19
2022-12-06T00:59:04.385Z,2.19
2022-12-06T01:00:04.384Z,2.19
2022-12-06T01:01:04.282Z,2.19
2022-12-06T01:02:04.145Z,2.19
2022-12-06T01:03:04.178Z,2.19
2022-12-06T01:04:04.064Z,2.19
2022-12-06T01:05:03.824Z,2.19
2022-12-06T01:06:03.836Z,2.19
2022-12-06T01:07:03.820Z,2.19
2022-12-06T01:08:03.818Z,2.19
2022-12-06T01:09:03.596Z,2.19
2022-12-06T01:10:03.925Z,2.19
2022-12-06T01:11:03.914Z,2.19
2022-12-06T01:12:03.823Z,2.19
2022-12-06T01:13:04.059Z,2.19
2022-12-06T01:14:04.069Z,2.19
2022-12-06T01:15:04.150Z,2.19
2022-12-06T01:16:03.986Z,2.19
2022-12-06T01:17:04.018Z,2.19
2022-12-06T01:18:03.897Z,2.19
2022-12-06T01:19:03.821Z,2.19
2022-12-06T01:20:03.933Z,2.19
2022-12-06T01:21:03.895Z,2.19
2022-12-06T01:22:03.917Z,2.19
2022-12-06T01:23:03.830Z,2.19
2022-12-06T01:24:03.665Z,2.19
2022-12-06T01:25:03.743Z,2.19
2022-12-06T01:26:03.663Z,2.19
2022-12-06T01:27:03.593Z,2.19
2022-12-06T01:28:03.504Z,2.19
2022-12-06T01:29:04.383Z,2.19
2022-12-06T01:30:04.305Z,2.19
2022-12-06T01:31:04.500Z,2.19
2022-12-06T01:32:04.380Z,2.19
2022-12-06T01:33:04.405Z,2.19
2022-12-06T01:34:04.145Z,2.19
2022-12-06T01:35:04.147Z,2.19
2022-12-06T01:36:03.996Z,2.19
2022-12-06T01:37:03.908Z,2.19
2022-12-06T01:38:06.181Z,2.12
2022-12-06T01:39:03.823Z,2.12
2022-12-06T01:40:03.830Z,2.19
2022-12-06T01:41:03.738Z,2.12
2022-12-06T01:42:03.660Z,2.12
2022-12-06T01:43:03.660Z,2.12
2022-12-06T01:44:03.657Z,2.12
2022-12-06T01:45:03.585Z,2.12
2022-12-06T01:46:03.559Z,2.12
2022-12-06T01:47:03.503Z,2.12
2022-12-06T01:48:03.420Z,2.12
2022-12-06T01:49:04.394Z,2.12
2022-12-06T01:50:04.296Z,2.12
2022-12-06T01:51:04.225Z,2.19
2022-12-06T01:52:04.230Z,2.12
2022-12-06T01:53:04.153Z,2.19
2022-12-06T01:54:04.143Z,2.19
2022-12-06T01:55:04.140Z,2.12
2022-12-06T01:56:03.991Z,2.12
2022-12-06T01:57:03.985Z,2.12
2022-12-06T01:58:03.976Z,2.12
2022-12-06T01:59:03.981Z,2.12
2022-12-06T02:00:03.905Z,2.12
2022-12-06T02:01:04.874Z,2.12
2022-12-06T02:02:03.789Z,2.12
2022-12-06T02:03:03.750Z,2.12
2022-12-06T02:04:03.787Z,2.12
2022-12-06T02:05:03.817Z,2.12
2022-12-06T02:06:03.744Z,2.19
2022-12-06T02:07:03.582Z,2.12
2022-12-06T02:08:04.102Z,2.12
2022-12-06T02:09:04.065Z,2.12
2022-12-06T02:10:03.982Z,2.12
2022-12-06T02:11:03.990Z,2.12
2022-12-06T02:12:03.904Z,2.12
2022-12-06T02:13:03.906Z,2.12
2022-12-06T02:14:03.746Z,2.12
2022-12-06T02:15:03.655Z,2.12
2022-12-06T02:16:03.657Z,2.12
2022-12-06T02:17:03.837Z,2.12
2022-12-06T02:18:03.676Z,2.12
2022-12-06T02:19:03.660Z,2.12
2022-12-06T02:20:03.700Z,2.12
2022-12-06T02:21:03.425Z,2.12
2022-12-06T02:22:04.402Z,2.12
2022-12-06T02:23:04.301Z,2.12
2022-12-06T02:24:04.319Z,2.06
2022-12-06T02:25:04.220Z,2.06
2022-12-06T02:26:04.143Z,2.06
2022-12-06T02:27:04.145Z,2.06
2022-12-06T02:28:04.152Z,2.06
2022-12-06T02:29:04.143Z,2.06
2022-12-06T02:30:03.999Z,2.06
2022-12-06T02:31:04.026Z,2.06
2022-12-06T02:32:03.985Z,2.06
2022-12-06T02:33:03.904Z,2.06
2022-12-06T02:34:03.896Z,2.06
2022-12-06T02:35:03.907Z,2.06
2022-12-06T02:36:03.856Z,2.06
2022-12-06T02:37:03.742Z,2.06
2022-12-06T02:38:04.113Z,2.06
2022-12-06T02:39:03.589Z,2.00
2022-12-06T02:40:03.604Z,2.00
2022-12-06T02:41:03.514Z,2.00
2022-12-06T02:42:04.459Z,2.00
2022-12-06T02:43:04.386Z,2.00
2022-12-06T02:44:04.375Z,2.00
2022-12-06T02:45:04.300Z,2.00
2022-12-06T02:46:04.336Z,2.00
2022-12-06T02:47:04.318Z,2.00
2022-12-06T02:48:04.138Z,2.00
2022-12-06T02:49:03.760Z,2.00
2022-12-06T02:50:03.670Z,2.00
2022-12-06T02:51:03.501Z,2.00
2022-12-06T02:52:03.509Z,2.00
2022-12-06T02:53:04.384Z,2.00
2022-12-06T02:54:04.304Z,2.00
2022-12-06T02:55:04.219Z,2.00
2022-12-06T02:56:04.225Z,2.00
2022-12-06T02:57:04.150Z,2.00
2022-12-06T02:58:04.058Z,2.00
2022-12-06T02:59:04.000Z,2.00
2022-12-06T03:00:03.901Z,1.94
2022-12-06T03:01:03.846Z,1.94
2022-12-06T03:02:03.821Z,1.94
2022-12-06T03:03:03.808Z,1.94
2022-12-06T03:04:03.638Z,1.94
2022-12-06T03:05:03.662Z,1.94
2022-12-06T03:06:03.588Z,1.94
2022-12-06T03:07:03.582Z,1.88
2022-12-06T03:08:03.687Z,1.88
2022-12-06T03:09:03.638Z,1.88
2022-12-06T03:10:03.758Z,1.88
2022-12-06T03:11:03.350Z,1.88
2022-12-06T03:12:03.422Z,1.88
2022-12-06T03:13:04.379Z,1.88
2022-12-06T03:14:04.850Z,1.88
2022-12-06T03:15:04.303Z,1.88
2022-12-06T03:16:04.459Z,1.88
2022-12-06T03:17:04.469Z,1.88
2022-12-06T03:18:03.743Z,1.88
2022-12-06T03:19:03.673Z,1.88
2022-12-06T03:20:03.616Z,1.88
2022-12-06T03:21:03.507Z,1.88
2022-12-06T03:22:04.383Z,1.88
2022-12-06T03:23:04.316Z,1.88
2022-12-06T03:24:04.223Z,1.88
2022-12-06T03:25:04.070Z,1.88
2022-12-06T03:26:03.997Z,1.88
2022-12-06T03:27:03.987Z,1.88
2022-12-06T03:28:03.815Z,1.88
2022-12-06T03:29:03.757Z,1.88
2022-12-06T03:30:03.683Z,1.88
2022-12-06T03:31:03.699Z,1.88
2022-12-06T03:32:03.582Z,1.88
2022-12-06T03:33:03.504Z,1.88
2022-12-06T03:34:03.507Z,1.88
2022-12-06T03:35:03.504Z,1.88
2022-12-06T03:36:04.385Z,1.88
2022-12-06T03:37:03.432Z,1.88
2022-12-06T03:38:04.391Z,1.88
2022-12-06T03:39:04.391Z,1.88
2022-12-06T03:40:04.302Z,1.88
2022-12-06T03:41:04.931Z,1.88
2022-12-06T03:42:03.903Z,1.88
2022-12-06T03:43:03.832Z,1.88
2022-12-06T03:44:03.740Z,1.94
2022-12-06T03:45:03.750Z,1.88
2022-12-06T03:46:03.707Z,1.94
2022-12-06T03:47:03.736Z,1.94
2022-12-06T03:48:03.513Z,1.94
2022-12-06T03:49:03.427Z,1.94
2022-12-06T03:50:03.476Z,1.94
2022-12-06T03:51:04.383Z,1.94
2022-12-06T03:52:04.212Z,1.94
2022-12-06T03:53:04.224Z,1.94
2022-12-06T03:54:04.149Z,1.94
2022-12-06T03:55:04.084Z,1.94
2022-12-06T03:56:04.056Z,1.94
2022-12-06T03:57:03.984Z,1.94
2022-12-06T03:58:03.910Z,1.94
2022-12-06T03:59:03.836Z,1.94
2022-12-06T04:00:03.746Z,1.94
2022-12-06T04:01:03.661Z,1.94
2022-12-06T04:02:03.637Z,1.94
2022-12-06T04:03:03.660Z,2.00
2022-12-06T04:04:03.721Z,2.00
2022-12-06T04:05:03.587Z,2.00
2022-12-06T04:06:03.584Z,2.00
2022-12-06T04:08:04.001Z,2.00
2022-12-06T04:09:03.766Z,2.00
2022-12-06T04:10:03.981Z,2.00
2022-12-06T04:11:03.751Z,2.00
2022-12-06T04:12:03.576Z,2.00
2022-12-06T04:13:03.588Z,2.00
2022-12-06T04:14:03.708Z,2.00
2022-12-06T04:15:03.419Z,2.00
2022-12-06T04:16:03.583Z,2.00
2022-12-06T04:17:03.582Z,2.00
2022-12-06T04:18:03.584Z,2.00
2022-12-06T04:19:03.578Z,2.00
2022-12-06T04:20:03.778Z,2.00
2022-12-06T04:21:03.587Z,2.00
2022-12-06T04:22:03.581Z,2.00
2022-12-06T04:23:03.584Z,2.06
2022-12-06T04:24:03.507Z,2.06
2022-12-06T04:25:04.467Z,2.06
2022-12-06T04:26:04.305Z,2.06
2022-12-06T04:27:04.230Z,2.06
2022-12-06T04:28:04.227Z,2.06
2022-12-06T04:29:04.146Z,2.06
2022-12-06T04:30:03.982Z,2.06
2022-12-06T04:31:04.028Z,2.06
2022-12-06T04:32:03.948Z,2.00
2022-12-06T04:33:03.900Z,2.06
2022-12-06T04:34:03.822Z,2.00
2022-12-06T04:35:03.749Z,2.00
2022-12-06T04:36:03.583Z,2.00
2022-12-06T04:37:03.658Z,2.06
2022-12-06T04:38:03.500Z,2.06
2022-12-06T04:39:03.509Z,2.00
2022-12-06T04:40:04.416Z,2.00
2022-12-06T04:41:04.384Z,2.00
2022-12-06T04:42:04.381Z,2.00
2022-12-06T04:43:04.301Z,2.00
2022-12-06T04:44:04.138Z,2.00
2022-12-06T04:45:04.145Z,2.00
2022-12-06T04:46:03.981Z,2.00
2022-12-06T04:47:03.950Z,2.00
2022-12-06T04:48:03.906Z,2.00
2022-12-06T04:49:03.821Z,2.00
2022-12-06T04:50:03.925Z,2.00
2022-12-06T04:51:03.664Z,2.00
2022-12-06T04:52:03.743Z,2.00
2022-12-06T04:53:03.657Z,2.00
2022-12-06T04:54:03.747Z,2.00
2022-12-06T04:55:03.585Z,2.00
2022-12-06T04:56:03.532Z,2.00
2022-12-06T04:57:04.478Z,2.00
2022-12-06T04:58:04.383Z,2.00
2022-12-06T04:59:04.306Z,2.00
2022-12-06T05:00:04.355Z,2.00
2022-12-06T05:01:04.317Z,2.00
2022-12-06T05:02:04.072Z,2.00
2022-12-06T05:03:04.022Z,2.00
2022-12-06T05:04:04.004Z,2.00
2022-12-06T05:05:03.928Z,2.00
2022-12-06T05:06:03.821Z,1.94
2022-12-06T05:07:03.751Z,2.00
2022-12-06T05:08:03.653Z,1.94
2022-12-06T05:09:03.447Z,2.00
2022-12-06T05:10:03.672Z,1.94
2022-12-06T05:11:04.462Z,1.94
2022-12-06T05:12:04.382Z,1.94
2022-12-06T05:13:04.313Z,1.94
2022-12-06T05:14:04.220Z,2.00
2022-12-06T05:15:04.069Z,1.94
2022-12-06T05:16:04.008Z,2.00
2022-12-06T05:17:03.979Z,2.00
2022-12-06T05:18:03.905Z,2.00
2022-12-06T05:19:03.893Z,2.00
2022-12-06T05:20:03.823Z,2.00
2022-12-06T05:21:03.742Z,2.00
2022-12-06T05:22:03.820Z,1.94
2022-12-06T05:23:03.822Z,1.94
2022-12-06T05:24:03.925Z,1.94
2022-12-06T05:25:04.019Z,2.00
2022-12-06T05:26:04.076Z,1.94
2022-12-06T05:27:03.981Z,1.94
2022-12-06T05:28:03.902Z,1.94
2022-12-06T05:29:03.828Z,1.94
2022-12-06T05:30:03.904Z,1.94
2022-12-06T05:31:03.756Z,1.94
2022-12-06T05:32:03.809Z,1.94
2022-12-06T05:33:03.672Z,1.94
2022-12-06T05:34:03.588Z,1.94
2022-12-06T05:35:03.496Z,1.94
2022-12-06T05:36:04.379Z,1.94
2022-12-06T05:37:04.385Z,1.94
2022-12-06T05:38:04.390Z,1.94
2022-12-06T05:39:04.313Z,1.94
2022-12-06T05:40:04.318Z,1.94
2022-12-06T05:41:04.226Z,1.94
2022-12-06T05:42:04.145Z,1.94
2022-12-06T05:43:04.067Z,1.94
2022-12-06T05:44:03.981Z,1.94
2022-12-06T05:45:04.120Z,1.94
2022-12-06T05:46:03.944Z,1.94
2022-12-06T05:47:03.986Z,1.94
2022-12-06T05:48:03.904Z,1.94
2022-12-06T05:49:03.980Z,1.94
2022-12-06T05:50:03.833Z,1.94
2022-12-06T05:51:03.826Z,1.94
2022-12-06T05:52:04.274Z,1.94
2022-12-06T05:53:03.833Z,1.94
2022-12-06T05:54:03.664Z,1.94
2022-12-06T05:55:03.590Z,1.94
2022-12-06T05:56:03.576Z,2.00
2022-12-06T05:57:03.600Z,2.00
2022-12-06T05:58:03.584Z,2.00
2022-12-06T05:59:03.541Z,1.94
2022-12-06T06:00:03.686Z,2.00
2022-12-06T06:01:03.506Z,2.00
2022-12-06T06:02:04.478Z,2.00
2022-12-06T06:03:04.584Z,1.94
2022-12-06T06:04:04.292Z,1.94
2022-12-06T06:05:04.237Z,2.00
2022-12-06T06:06:04.142Z,2.00
2022-12-06T06:07:04.141Z,2.00
2022-12-06T06:08:04.170Z,2.00
2022-12-06T06:09:04.023Z,1.94
2022-12-06T06:10:04.006Z,1.94
2022-12-06T06:11:03.908Z,1.94
2022-12-06T06:12:06.894Z,2.00
2022-12-06T06:13:03.901Z,1.94
2022-12-06T06:14:03.901Z,2.00
2022-12-06T06:15:03.826Z,1.94
2022-12-06T06:16:03.739Z,1.94
2022-12-06T06:17:03.792Z,2.00
2022-12-06T06:18:03.749Z,2.00
2022-12-06T06:19:03.764Z,2.00
2022-12-06T06:20:03.882Z,2.00
2022-12-06T06:21:03.584Z,2.00
2022-12-06T06:22:03.420Z,2.00
2022-12-06T06:23:04.292Z,2.00
2022-12-06T06:24:04.221Z,2.00
2022-12-06T06:25:04.148Z,2.00
2022-12-06T06:26:03.906Z,2.00
2022-12-06T06:27:03.827Z,2.00
2022-12-06T06:28:04.712Z,2.00
2022-12-06T06:29:03.667Z,2.00
2022-12-06T06:30:03.770Z,2.00
2022-12-06T06:31:03.506Z,2.00
2022-12-06T06:32:04.433Z,2.00
2022-12-06T06:33:04.385Z,2.00
2022-12-06T06:34:04.380Z,2.00
2022-12-06T06:35:04.307Z,2.00
2022-12-06T06:36:04.299Z,2.00
2022-12-06T06:37:04.393Z,2.00
2022-12-06T06:38:04.303Z,2.00
2022-12-06T06:39:04.222Z,2.00
2022-12-06T06:40:04.198Z,2.00
2022-12-06T06:41:04.145Z,2.00
2022-12-06T06:42:04.141Z,2.00
2022-12-06T06:43:04.239Z,2.06
2022-12-06T06:44:04.144Z,2.06
2022-12-06T06:45:04.095Z,2.06
2022-12-06T06:46:03.986Z,2.00
2022-12-06T06:47:03.911Z,2.00
2022-12-06T06:48:03.824Z,2.06
2022-12-06T06:49:03.821Z,2.06
2022-12-06T06:50:03.899Z,2.06
2022-12-06T06:51:03.751Z,2.06
2022-12-06T06:52:03.659Z,2.06
2022-12-06T06:53:03.609Z,2.06
2022-12-06T06:54:03.517Z,2.06
2022-12-06T06:55:04.391Z,2.06
2022-12-06T06:56:04.305Z,2.06
2022-12-06T06:57:04.301Z,2.06
2022-12-06T06:58:04.220Z,2.06
2022-12-06T06:59:04.247Z,2.06
2022-12-06T07:00:04.145Z,2.06
2022-12-06T07:01:03.994Z,2.06
2022-12-06T07:02:03.966Z,2.06
2022-12-06T07:03:03.821Z,2.06
2022-12-06T07:04:03.826Z,2.06
2022-12-06T07:05:03.824Z,2.06
2022-12-06T07:07:03.742Z,2.06
2022-12-06T07:08:03.873Z,2.06
2022-12-06T07:09:03.585Z,2.06
2022-12-06T07:10:03.667Z,2.06
2022-12-06T07:11:04.413Z,2.06
2022-12-06T07:12:04.406Z,2.06
2022-12-06T07:13:04.143Z,2.06
2022-12-06T07:14:04.066Z,2.06
2022-12-06T07:15:04.155Z,2.06
2022-12-06T07:16:04.057Z,2.06
2022-12-06T07:17:04.193Z,2.06
2022-12-06T07:18:03.985Z,2.06
2022-12-06T07:19:08.801Z,2.06
2022-12-06T07:20:03.939Z,2.06
2022-12-06T07:21:03.759Z,2.06
2022-12-06T07:22:03.666Z,2.06
2022-12-06T07:23:03.747Z,2.06
2022-12-06T07:24:03.592Z,2.06
2022-12-06T07:25:03.507Z,2.06
2022-12-06T07:26:04.409Z,2.06
2022-12-06T07:27:04.305Z,2.06
2022-12-06T07:28:04.299Z,2.06
2022-12-06T07:29:04.254Z,2.06
2022-12-06T07:30:04.233Z,2.06
2022-12-06T07:31:04.161Z,2.12
2022-12-06T07:32:03.983Z,2.06
2022-12-06T07:33:03.988Z,2.06
2022-12-06T07:34:03.819Z,2.12
2022-12-06T07:35:03.813Z,2.12
2022-12-06T07:36:11.806Z,2.12
2022-12-06T07:37:03.658Z,2.12
2022-12-06T07:38:03.578Z,2.12
2022-12-06T07:39:03.505Z,2.12
2022-12-06T07:40:03.616Z,2.12
2022-12-06T07:41:04.958Z,2.12
2022-12-06T07:42:03.416Z,2.12
2022-12-06T07:43:03.538Z,2.12
2022-12-06T07:44:03.420Z,2.12
2022-12-06T07:45:04.483Z,2.12
2022-12-06T07:46:04.436Z,2.12
2022-12-06T07:47:04.230Z,2.12
2022-12-06T07:48:04.224Z,2.12
2022-12-06T07:49:04.069Z,2.12
2022-12-06T07:50:04.091Z,2.12
2022-12-06T07:51:03.896Z,2.12
2022-12-06T07:52:03.902Z,2.12
2022-12-06T07:53:03.832Z,2.12
2022-12-06T07:54:03.676Z,2.12
2022-12-06T07:55:03.594Z,2.12
2022-12-06T07:56:04.504Z,2.12
2022-12-06T07:57:04.301Z,2.19
2022-12-06T07:58:04.226Z,2.12
2022-12-06T07:59:04.135Z,2.12
2022-12-06T08:00:04.086Z,2.19
2022-12-06T08:01:03.965Z,2.19
2022-12-06T08:02:03.939Z,2.12
2022-12-06T08:03:03.822Z,2.19
2022-12-06T08:04:03.871Z,2.19
2022-12-06T08:05:03.751Z,2.19
2022-12-06T08:06:03.659Z,2.19
2022-12-06T08:07:03.667Z,2.19
2022-12-06T08:08:03.599Z,2.19
2022-12-06T08:09:03.505Z,2.19
2022-12-06T08:10:04.474Z,2.19
2022-12-06T08:11:04.313Z,2.19
2022-12-06T08:12:04.305Z,2.19
2022-12-06T08:13:04.306Z,2.19
2022-12-06T08:14:04.225Z,2.19
2022-12-06T08:15:04.232Z,2.19
2022-12-06T08:16:04.169Z,2.19
2022-12-06T08:17:04.097Z,2.19
2022-12-06T08:18:03.979Z,2.19
2022-12-06T08:19:03.908Z,2.19
2022-12-06T08:20:04.151Z,2.19
2022-12-06T08:21:03.747Z,2.19
2022-12-06T08:22:03.670Z,2.19
2022-12-06T08:23:03.581Z,2.19
2022-12-06T08:24:03.429Z,2.19
2022-12-06T08:25:03.501Z,2.19
2022-12-06T08:26:04.391Z,2.19
2022-12-06T08:27:04.469Z,2.25
2022-12-06T08:28:04.309Z,2.25
2022-12-06T08:29:04.233Z,2.19
2022-12-06T08:30:04.304Z,2.25
2022-12-06T08:31:04.097Z,2.25
2022-12-06T08:32:04.001Z,2.25
2022-12-06T08:33:03.911Z,2.25
2022-12-06T08:34:03.751Z,2.25
2022-12-06T08:35:03.586Z,2.25
2022-12-06T08:36:03.751Z,2.25
2022-12-06T08:37:03.900Z,2.25
2022-12-06T08:38:03.616Z,2.25
2022-12-06T08:39:03.671Z,2.25
2022-12-06T08:40:03.707Z,2.25
2022-12-06T08:41:04.298Z,2.25
2022-12-06T08:42:04.226Z,2.25
2022-12-06T08:43:04.153Z,2.25
2022-12-06T08:44:04.078Z,2.25
2022-12-06T08:45:03.983Z,2.25
2022-12-06T08:46:03.937Z,2.25
2022-12-06T08:47:03.824Z,2.25
2022-12-06T08:48:03.743Z,2.25
2022-12-06T08:49:03.662Z,2.25
2022-12-06T08:50:03.777Z,2.25
2022-12-06T08:51:03.673Z,2.25
2022-12-06T08:52:03.594Z,2.25
2022-12-06T08:53:03.508Z,2.25
2022-12-06T08:54:04.385Z,2.25
2022-12-06T08:55:04.389Z,2.25
2022-12-06T08:56:04.306Z,2.25
2022-12-06T08:57:04.221Z,2.25
2022-12-06T08:58:04.197Z,2.25
2022-12-06T08:59:04.080Z,2.25
2022-12-06T09:00:04.128Z,2.31
2022-12-06T09:01:03.999Z,2.25
2022-12-06T09:02:03.969Z,2.25
2022-12-06T09:03:03.827Z,2.31
2022-12-06T09:04:03.902Z,2.31
2022-12-06T09:05:03.975Z,2.31
2022-12-06T09:06:03.855Z,2.31
2022-12-06T09:07:06.305Z,2.31
2022-12-06T09:08:03.802Z,2.31
2022-12-06T09:09:03.666Z,2.31
2022-12-06T09:10:03.661Z,2.31
2022-12-06T09:11:03.587Z,2.31
2022-12-06T09:12:03.524Z,2.31
2022-12-06T09:13:03.423Z,2.31
2022-12-06T09:14:04.382Z,2.31
2022-12-06T09:15:04.312Z,2.31
2022-12-06T09:16:04.243Z,2.31
2022-12-06T09:17:04.064Z,2.31
2022-12-06T09:18:04.059Z,2.31
2022-12-06T09:19:04.066Z,2.31
2022-12-06T09:20:06.239Z,2.31
2022-12-06T09:21:04.021Z,2.31
2022-12-06T09:22:03.834Z,2.31
2022-12-06T09:23:03.751Z,2.31
2022-12-06T09:24:03.744Z,2.31
2022-12-06T09:25:03.744Z,2.31
2022-12-06T09:26:03.754Z,2.31
2022-12-06T09:27:03.663Z,2.31
2022-12-06T09:28:03.629Z,2.31
2022-12-06T09:29:03.612Z,2.31
2022-12-06T09:30:03.708Z,2.31
2022-12-06T09:31:03.780Z,2.31
2022-12-06T09:32:03.674Z,2.31
2022-12-06T09:34:03.591Z,2.31
2022-12-06T09:35:03.417Z,2.31
2022-12-06T09:36:04.459Z,2.31
2022-12-06T09:37:03.428Z,2.31
2022-12-06T09:38:03.497Z,2.31
2022-12-06T09:39:04.467Z,2.31
2022-12-06T09:40:04.385Z,2.31
2022-12-06T09:41:04.136Z,2.38
2022-12-06T09:42:04.141Z,2.38
2022-12-06T09:43:03.911Z,2.31
2022-12-06T09:44:03.835Z,2.38
2022-12-06T09:45:03.748Z,2.38
2022-12-06T09:46:03.803Z,2.31
2022-12-06T09:47:03.753Z,2.31
2022-12-06T09:49:03.599Z,2.38
2022-12-06T09:50:03.665Z,2.38
2022-12-06T09:52:04.236Z,2.38
2022-12-06T09:53:04.140Z,2.38
2022-12-06T09:54:03.980Z,2.38
2022-12-06T09:55:04.069Z,2.38
2022-12-06T09:56:03.981Z,2.38
2022-12-06T09:57:03.829Z,2.38
2022-12-06T09:58:03.912Z,2.38
2022-12-06T09:59:03.761Z,2.38
2022-12-06T10:00:06.220Z,2.38
2022-12-06T10:01:03.504Z,2.38
2022-12-06T10:02:03.642Z,2.38
2022-12-06T10:03:03.548Z,2.38
2022-12-06T10:04:03.416Z,2.38
2022-12-06T10:05:04.382Z,2.38
2022-12-06T10:06:04.381Z,2.38
2022-12-06T10:07:04.307Z,2.38
2022-12-06T10:08:04.352Z,2.38
2022-12-06T10:09:04.284Z,2.38
2022-12-06T10:10:04.094Z,2.38
2022-12-06T10:11:08.429Z,2.44
2022-12-06T10:12:03.825Z,2.38
2022-12-06T10:13:03.748Z,2.44
2022-12-06T10:14:03.663Z,2.44
2022-12-06T10:15:03.662Z,2.44
2022-12-06T10:16:03.679Z,2.38
2022-12-06T10:17:03.427Z,2.38
2022-12-06T10:18:04.379Z,2.44
2022-12-06T10:19:04.386Z,2.44
2022-12-06T10:20:04.342Z,2.44
2022-12-06T10:21:04.145Z,2.44
2022-12-06T10:22:04.057Z,2.44
2022-12-06T10:23:03.993Z,2.44
2022-12-06T10:24:04.117Z,2.44
2022-12-06T10:25:03.916Z,2.44
2022-12-06T10:26:03.837Z,2.44
2022-12-06T10:27:03.733Z,2.44
2022-12-06T10:28:03.745Z,2.44
2022-12-06T10:29:03.582Z,2.44
2022-12-06T10:30:03.889Z,2.44
2022-12-06T10:31:04.468Z,2.44
2022-12-06T10:32:04.311Z,2.44
2022-12-06T10:33:04.226Z,2.44
2022-12-06T10:34:04.148Z,2.44
2022-12-06T10:35:04.292Z,2.44
2022-12-06T10:36:04.066Z,2.44
2022-12-06T10:37:03.904Z,2.44
2022-12-06T10:38:03.820Z,2.44
2022-12-06T10:39:03.859Z,2.44
2022-12-06T10:40:04.102Z,2.44
2022-12-06T10:41:03.588Z,2.44
2022-12-06T10:42:03.604Z,2.44
2022-12-06T10:43:03.430Z,2.44
2022-12-06T10:44:04.383Z,2.44
2022-12-06T10:45:04.326Z,2.44
2022-12-06T10:46:08.593Z,2.44
2022-12-06T10:47:03.574Z,2.44
2022-12-06T10:48:04.299Z,2.44
2022-12-06T10:49:04.385Z,2.44
2022-12-06T10:50:04.417Z,2.44
2022-12-06T10:51:04.146Z,2.44
2022-12-06T10:52:04.064Z,2.44
2022-12-06T10:53:03.985Z,2.44
2022-12-06T10:54:03.980Z,2.44
2022-12-06T10:55:03.985Z,2.44
2022-12-06T10:56:03.907Z,2.44
2022-12-06T10:57:03.823Z,2.44
2022-12-06T10:58:03.824Z,2.44
2022-12-06T10:59:03.753Z,2.44
2022-12-06T11:00:04.304Z,2.44
2022-12-06T11:01:03.582Z,2.44
2022-12-06T11:02:04.484Z,2.44
2022-12-06T11:03:04.539Z,2.44
2022-12-06T11:04:04.386Z,2.44
2022-12-06T11:05:04.227Z,2.44
2022-12-06T11:06:04.219Z,2.44
2022-12-06T11:07:04.138Z,2.44
2022-12-06T11:08:04.111Z,2.44
2022-12-06T11:09:03.985Z,2.44
2022-12-06T11:10:04.041Z,2.44
2022-12-06T11:11:03.824Z,2.44
2022-12-06T11:12:03.739Z,2.44
2022-12-06T11:13:03.742Z,2.44
2022-12-06T11:14:03.658Z,2.44
2022-12-06T11:15:03.664Z,2.44
2022-12-06T11:16:03.681Z,2.44
2022-12-06T11:17:03.506Z,2.44
2022-12-06T11:18:03.439Z,2.44
2022-12-06T11:19:04.387Z,2.44
2022-12-06T11:20:04.247Z,2.44
2022-12-06T11:21:04.057Z,2.44
2022-12-06T11:22:03.983Z,2.44
2022-12-06T11:23:04.068Z,2.44
2022-12-06T11:24:03.899Z,2.44
2022-12-06T11:25:03.903Z,2.44
2022-12-06T11:26:03.824Z,2.44
2022-12-06T11:27:03.674Z,2.44
2022-12-06T11:28:03.668Z,2.44
2022-12-06T11:29:03.495Z,2.44
2022-12-06T11:30:04.415Z,2.44
2022-12-06T11:31:04.419Z,2.44
2022-12-06T11:32:04.484Z,2.44
2022-12-06T11:33:04.306Z,2.44
2022-12-06T11:34:04.300Z,2.44
2022-12-06T11:35:04.309Z,2.44
2022-12-06T11:36:04.226Z,2.44
2022-12-06T11:37:04.228Z,2.38
2022-12-06T11:38:04.148Z,2.44
2022-12-06T11:39:04.064Z,2.44
2022-12-06T11:40:04.003Z,2.38
2022-12-06T11:41:03.901Z,2.44
2022-12-06T11:42:03.850Z,2.44
2022-12-06T11:43:03.747Z,2.44
2022-12-06T11:44:03.745Z,2.44
2022-12-06T11:45:04.042Z,2.38
2022-12-06T11:46:03.667Z,2.44
2022-12-06T11:47:03.815Z,2.44
2022-12-06T11:48:03.534Z,2.44
2022-12-06T11:49:03.500Z,2.44
2022-12-06T11:50:08.578Z,2.44
2022-12-06T11:51:04.304Z,2.44
2022-12-06T11:52:04.312Z,2.44
2022-12-06T11:59:03.746Z,2.44
2022-12-06T12:00:03.616Z,2.44
2022-12-06T12:01:03.501Z,2.44
2022-12-06T12:02:04.428Z,2.44
2022-12-06T12:03:04.447Z,2.44
2022-12-06T12:04:04.306Z,2.44
2022-12-06T12:05:04.308Z,2.44
2022-12-06T12:06:04.144Z,2.44
2022-12-06T12:07:04.228Z,2.44
2022-12-06T12:08:04.145Z,2.44
2022-12-06T12:09:03.987Z,2.44
2022-12-06T12:10:03.819Z,2.44
2022-12-06T12:11:03.846Z,2.44
2022-12-06T12:12:03.825Z,2.44
2022-12-06T12:13:03.820Z,2.44
2022-12-06T12:14:03.665Z,2.44
2022-12-06T12:15:03.881Z,2.44
2022-12-06T12:16:03.636Z,2.44
2022-12-06T12:17:04.545Z,2.44
2022-12-06T12:18:04.384Z,2.44
2022-12-06T12:19:04.216Z,2.44
2022-12-06T12:20:04.148Z,2.44
2022-12-06T12:21:03.980Z,2.44
2022-12-06T12:22:03.903Z,2.44
2022-12-06T12:23:03.910Z,2.44
2022-12-06T12:24:03.738Z,2.44
2022-12-06T12:25:18.755Z,2.44
2022-12-06T12:26:03.573Z,2.44
2022-12-06T12:27:03.583Z,2.44
2022-12-06T12:28:03.507Z,2.44
2022-12-06T12:29:04.306Z,2.44
2022-12-06T12:30:04.219Z,2.44
2022-12-06T12:31:04.220Z,2.44
2022-12-06T12:32:04.328Z,2.38
2022-12-06T12:33:04.146Z,2.38
2022-12-06T12:34:04.138Z,2.38
2022-12-06T12:35:04.145Z,2.44
2022-12-06T12:36:04.225Z,2.44
2022-12-06T12:37:04.136Z,2.38
2022-12-06T12:38:04.090Z,2.38
2022-12-06T12:39:04.068Z,2.44
2022-12-06T12:40:09.122Z,2.44
2022-12-06T12:41:03.664Z,2.44
2022-12-06T12:42:03.655Z,2.38
2022-12-06T12:43:03.580Z,2.44
2022-12-06T12:44:28.765Z,2.44
2022-12-06T12:45:03.686Z,2.38
2022-12-06T12:46:04.415Z,2.38
2022-12-06T12:47:04.397Z,2.38
2022-12-06T12:48:04.309Z,2.38
2022-12-06T12:49:04.238Z,2.38
2022-12-06T12:50:04.066Z,2.38
2022-12-06T12:51:03.979Z,2.44
2022-12-06T12:52:04.000Z,2.38
2022-12-06T12:53:03.983Z,2.38
2022-12-06T12:54:03.829Z,2.44
2022-12-06T12:55:04.072Z,2.44
2022-12-06T12:56:03.823Z,2.38
2022-12-06T12:57:03.742Z,2.44
2022-12-06T12:58:03.756Z,2.38
2022-12-06T12:59:03.664Z,2.44
2022-12-06T13:00:03.587Z,2.44
2022-12-06T13:01:03.566Z,2.44
2022-12-06T13:02:04.490Z,2.44
2022-12-06T13:03:07.799Z,2.44
2022-12-06T13:04:04.312Z,2.44
2022-12-06T13:05:31.046Z,2.44
2022-12-06T13:06:04.224Z,2.44
2022-12-06T13:07:04.061Z,2.44
2022-12-06T13:08:04.141Z,2.38
2022-12-06T13:09:03.839Z,2.44
2022-12-06T13:10:03.753Z,2.38
2022-12-06T13:11:03.670Z,2.38
2022-12-06T13:12:03.506Z,2.38
2022-12-06T13:13:04.463Z,2.38
2022-12-06T13:14:04.311Z,2.38
2022-12-06T13:15:04.406Z,2.38
2022-12-06T13:16:08.897Z,2.38
2022-12-06T13:17:04.202Z,2.38
2022-12-06T13:18:04.062Z,2.38
2022-12-06T13:19:03.903Z,2.38
2022-12-06T13:20:04.266Z,2.38
2022-12-06T13:21:03.902Z,2.38
2022-12-06T13:22:03.823Z,2.38
2022-12-06T13:23:03.827Z,2.38
2022-12-06T13:24:03.741Z,2.38
2022-12-06T13:25:03.659Z,2.38
2022-12-06T13:26:03.656Z,2.38
2022-12-06T13:27:03.586Z,2.38
2022-12-06T13:28:05.511Z,2.38
2022-12-06T13:29:04.380Z,2.38